sensor_id;sensor_type;location;lat;lon;timestamp;temperature;humidity
53962;DHT22;39868;53.398;6.564;2022-10-31T00:01:01;17.10;78.70
53962;DHT22;39868;53.398;6.564;2022-10-31T00:03:28;17.10;78.70
53962;DHT22;39868;53.398;6.564;2022-10-31T00:05:56;17.00;78.70
53962;DHT22;39868;53.398;6.564;2022-10-31T00:08:23;17.00;78.60
53962;DHT22;39868;53.398;6.564;2022-10-31T00:10:51;17.00;78.60
53962;DHT22;39868;53.398;6.564;2022-10-31T00:13:18;16.90;78.50
53962;DHT22;39868;53.398;6.564;2022-10-31T00:15:46;17.00;78.60
53962;DHT22;39868;53.398;6.564;2022-10-31T00:18:13;16.90;78.40
53962;DHT22;39868;53.398;6.564;2022-10-31T00:20:41;16.90;78.40
53962;DHT22;39868;53.398;6.564;2022-10-31T00:23:09;16.90;78.40
53962;DHT22;39868;53.398;6.564;2022-10-31T00:25:39;16.80;78.40
53962;DHT22;39868;53.398;6.564;2022-10-31T00:28:09;16.80;78.40
53962;DHT22;39868;53.398;6.564;2022-10-31T00:30:37;16.70;78.40
53962;DHT22;39868;53.398;6.564;2022-10-31T00:33:05;16.70;78.50
53962;DHT22;39868;53.398;6.564;2022-10-31T00:35:33;16.70;78.60
53962;DHT22;39868;53.398;6.564;2022-10-31T00:38:00;16.70;78.60
53962;DHT22;39868;53.398;6.564;2022-10-31T00:40:28;16.60;78.70
53962;DHT22;39868;53.398;6.564;2022-10-31T00:42:55;16.60;78.70
53962;DHT22;39868;53.398;6.564;2022-10-31T00:45:23;16.60;78.70
53962;DHT22;39868;53.398;6.564;2022-10-31T00:47:51;16.60;78.70
53962;DHT22;39868;53.398;6.564;2022-10-31T00:50:18;16.60;78.80
53962;DHT22;39868;53.398;6.564;2022-10-31T00:52:46;16.50;78.70
53962;DHT22;39868;53.398;6.564;2022-10-31T00:55:13;16.50;78.70
53962;DHT22;39868;53.398;6.564;2022-10-31T00:57:41;16.50;78.70
53962;DHT22;39868;53.398;6.564;2022-10-31T01:00:10;16.50;78.70
53962;DHT22;39868;53.398;6.564;2022-10-31T01:02:37;16.40;78.60
53962;DHT22;39868;53.398;6.564;2022-10-31T01:05:05;16.50;78.70
53962;DHT22;39868;53.398;6.564;2022-10-31T01:07:37;16.40;78.60
53962;DHT22;39868;53.398;6.564;2022-10-31T01:10:09;16.40;78.50
53962;DHT22;39868;53.398;6.564;2022-10-31T01:12:41;16.40;78.50
53962;DHT22;39868;53.398;6.564;2022-10-31T01:15:10;16.30;78.40
53962;DHT22;39868;53.398;6.564;2022-10-31T01:17:38;16.30;78.50
53962;DHT22;39868;53.398;6.564;2022-10-31T01:20:07;16.30;78.40
53962;DHT22;39868;53.398;6.564;2022-10-31T01:22:35;16.20;78.40
53962;DHT22;39868;53.398;6.564;2022-10-31T01:25:02;16.20;78.40
53962;DHT22;39868;53.398;6.564;2022-10-31T01:27:31;16.20;78.40
53962;DHT22;39868;53.398;6.564;2022-10-31T01:29:58;16.10;78.40
53962;DHT22;39868;53.398;6.564;2022-10-31T01:32:27;16.10;78.40
53962;DHT22;39868;53.398;6.564;2022-10-31T01:34:57;16.00;78.40
53962;DHT22;39868;53.398;6.564;2022-10-31T01:37:25;16.00;78.40
53962;DHT22;39868;53.398;6.564;2022-10-31T01:39:52;16.00;78.40
53962;DHT22;39868;53.398;6.564;2022-10-31T01:42:21;16.00;78.50
53962;DHT22;39868;53.398;6.564;2022-10-31T01:44:51;15.90;78.50
53962;DHT22;39868;53.398;6.564;2022-10-31T01:47:35;15.90;78.50
53962;DHT22;39868;53.398;6.564;2022-10-31T01:50:10;15.90;78.60
53962;DHT22;39868;53.398;6.564;2022-10-31T01:52:45;15.80;78.60
53962;DHT22;39868;53.398;6.564;2022-10-31T01:57:59;15.80;78.70
53962;DHT22;39868;53.398;6.564;2022-10-31T02:00:29;15.80;78.80
53962;DHT22;39868;53.398;6.564;2022-10-31T02:02:58;15.80;78.80
53962;DHT22;39868;53.398;6.564;2022-10-31T02:05:29;15.70;78.80
53962;DHT22;39868;53.398;6.564;2022-10-31T02:08:04;15.70;78.80
53962;DHT22;39868;53.398;6.564;2022-10-31T02:10:34;15.70;78.90
53962;DHT22;39868;53.398;6.564;2022-10-31T02:13:06;15.60;78.90
53962;DHT22;39868;53.398;6.564;2022-10-31T02:15:44;15.60;78.90
53962;DHT22;39868;53.398;6.564;2022-10-31T02:18:12;15.60;79.00
53962;DHT22;39868;53.398;6.564;2022-10-31T02:21:24;15.60;79.00
53962;DHT22;39868;53.398;6.564;2022-10-31T02:26:58;15.60;79.00
53962;DHT22;39868;53.398;6.564;2022-10-31T02:29:57;15.60;79.10
53962;DHT22;39868;53.398;6.564;2022-10-31T02:36:03;15.50;79.10
53962;DHT22;39868;53.398;6.564;2022-10-31T02:41:35;15.50;79.10
53962;DHT22;39868;53.398;6.564;2022-10-31T02:47:01;15.40;79.40
53962;DHT22;39868;53.398;6.564;2022-10-31T02:52:26;15.40;79.60
53962;DHT22;39868;53.398;6.564;2022-10-31T02:58:07;15.40;79.60
53962;DHT22;39868;53.398;6.564;2022-10-31T03:07:21;15.40;79.60
53962;DHT22;39868;53.398;6.564;2022-10-31T03:12:44;15.40;79.50
53962;DHT22;39868;53.398;6.564;2022-10-31T03:15:28;15.40;79.40
53962;DHT22;39868;53.398;6.564;2022-10-31T03:18:07;15.40;79.30
53962;DHT22;39868;53.398;6.564;2022-10-31T03:20:46;15.40;79.10
53962;DHT22;39868;53.398;6.564;2022-10-31T03:23:17;15.40;79.00
53962;DHT22;39868;53.398;6.564;2022-10-31T03:25:51;15.40;78.80
53962;DHT22;39868;53.398;6.564;2022-10-31T03:28:34;15.40;78.70
53962;DHT22;39868;53.398;6.564;2022-10-31T03:31:05;15.40;78.70
53962;DHT22;39868;53.398;6.564;2022-10-31T03:33:38;15.30;78.60
53962;DHT22;39868;53.398;6.564;2022-10-31T03:36:08;15.30;78.60
53962;DHT22;39868;53.398;6.564;2022-10-31T03:38:38;15.30;78.50
53962;DHT22;39868;53.398;6.564;2022-10-31T03:41:12;15.20;78.50
53962;DHT22;39868;53.398;6.564;2022-10-31T03:43:55;15.30;78.50
53962;DHT22;39868;53.398;6.564;2022-10-31T03:46:25;15.20;78.50
53962;DHT22;39868;53.398;6.564;2022-10-31T03:48:56;15.20;78.60
53962;DHT22;39868;53.398;6.564;2022-10-31T03:51:36;15.10;78.50
53962;DHT22;39868;53.398;6.564;2022-10-31T04:00:06;15.10;78.70
53962;DHT22;39868;53.398;6.564;2022-10-31T04:03:07;15.00;78.70
53962;DHT22;39868;53.398;6.564;2022-10-31T04:05:38;15.00;78.80
53962;DHT22;39868;53.398;6.564;2022-10-31T04:08:11;14.90;78.80
53962;DHT22;39868;53.398;6.564;2022-10-31T04:10:44;14.90;78.80
53962;DHT22;39868;53.398;6.564;2022-10-31T04:13:16;14.90;78.90
53962;DHT22;39868;53.398;6.564;2022-10-31T04:15:57;14.90;78.90
53962;DHT22;39868;53.398;6.564;2022-10-31T04:18:26;14.80;78.90
53962;DHT22;39868;53.398;6.564;2022-10-31T04:21:05;14.80;78.90
53962;DHT22;39868;53.398;6.564;2022-10-31T04:23:34;14.90;78.90
53962;DHT22;39868;53.398;6.564;2022-10-31T04:26:13;14.80;78.80
53962;DHT22;39868;53.398;6.564;2022-10-31T04:28:43;14.80;78.80
53962;DHT22;39868;53.398;6.564;2022-10-31T04:31:12;14.80;78.80
53962;DHT22;39868;53.398;6.564;2022-10-31T04:33:42;14.80;78.80
53962;DHT22;39868;53.398;6.564;2022-10-31T04:36:09;14.80;78.80
53962;DHT22;39868;53.398;6.564;2022-10-31T04:38:37;14.70;78.80
53962;DHT22;39868;53.398;6.564;2022-10-31T04:41:13;14.70;78.80
53962;DHT22;39868;53.398;6.564;2022-10-31T04:44:01;14.70;78.80
53962;DHT22;39868;53.398;6.564;2022-10-31T04:46:29;14.70;78.80
53962;DHT22;39868;53.398;6.564;2022-10-31T04:48:58;14.70;78.80
53962;DHT22;39868;53.398;6.564;2022-10-31T04:51:26;14.70;78.80
53962;DHT22;39868;53.398;6.564;2022-10-31T04:53:54;14.70;78.80
53962;DHT22;39868;53.398;6.564;2022-10-31T04:56:40;14.70;78.80
53962;DHT22;39868;53.398;6.564;2022-10-31T04:59:16;14.60;78.80
53962;DHT22;39868;53.398;6.564;2022-10-31T05:01:51;14.60;78.80
53962;DHT22;39868;53.398;6.564;2022-10-31T05:04:32;14.60;78.90
53962;DHT22;39868;53.398;6.564;2022-10-31T05:06:59;14.60;78.90
53962;DHT22;39868;53.398;6.564;2022-10-31T05:09:27;14.60;78.90
53962;DHT22;39868;53.398;6.564;2022-10-31T05:11:54;14.60;79.00
53962;DHT22;39868;53.398;6.564;2022-10-31T05:14:40;14.50;79.00
53962;DHT22;39868;53.398;6.564;2022-10-31T05:17:45;14.50;79.00
53962;DHT22;39868;53.398;6.564;2022-10-31T05:20:45;14.50;79.00
53962;DHT22;39868;53.398;6.564;2022-10-31T05:23:31;14.50;79.10
53962;DHT22;39868;53.398;6.564;2022-10-31T05:25:59;14.50;79.20
53962;DHT22;39868;53.398;6.564;2022-10-31T05:28:27;14.50;79.20
53962;DHT22;39868;53.398;6.564;2022-10-31T05:30:54;14.50;79.20
53962;DHT22;39868;53.398;6.564;2022-10-31T05:33:22;14.50;79.20
53962;DHT22;39868;53.398;6.564;2022-10-31T05:36:10;14.50;79.20
53962;DHT22;39868;53.398;6.564;2022-10-31T05:38:51;14.50;79.20
53962;DHT22;39868;53.398;6.564;2022-10-31T05:41:27;14.50;79.10
53962;DHT22;39868;53.398;6.564;2022-10-31T05:44:04;14.50;79.10
53962;DHT22;39868;53.398;6.564;2022-10-31T05:46:38;14.50;79.10
53962;DHT22;39868;53.398;6.564;2022-10-31T05:49:24;14.50;79.00
53962;DHT22;39868;53.398;6.564;2022-10-31T05:51:58;14.50;79.00
53962;DHT22;39868;53.398;6.564;2022-10-31T05:54:34;14.50;79.00
53962;DHT22;39868;53.398;6.564;2022-10-31T05:57:02;14.40;78.80
53962;DHT22;39868;53.398;6.564;2022-10-31T05:59:29;14.40;78.80
53962;DHT22;39868;53.398;6.564;2022-10-31T06:01:58;14.40;78.60
53962;DHT22;39868;53.398;6.564;2022-10-31T06:04:51;14.40;78.60
53962;DHT22;39868;53.398;6.564;2022-10-31T06:07:19;14.40;78.60
53962;DHT22;39868;53.398;6.564;2022-10-31T06:09:47;14.40;78.60
53962;DHT22;39868;53.398;6.564;2022-10-31T06:12:15;14.40;78.70
53962;DHT22;39868;53.398;6.564;2022-10-31T06:15:21;14.30;78.70
53962;DHT22;39868;53.398;6.564;2022-10-31T06:17:59;14.30;78.70
53962;DHT22;39868;53.398;6.564;2022-10-31T06:20:32;14.30;78.70
53962;DHT22;39868;53.398;6.564;2022-10-31T06:23:03;14.30;78.70
53962;DHT22;39868;53.398;6.564;2022-10-31T06:25:33;14.30;78.70
53962;DHT22;39868;53.398;6.564;2022-10-31T06:28:00;14.20;78.60
53962;DHT22;39868;53.398;6.564;2022-10-31T06:30:45;14.20;78.60
53962;DHT22;39868;53.398;6.564;2022-10-31T06:33:13;14.20;78.60
53962;DHT22;39868;53.398;6.564;2022-10-31T06:35:47;14.20;78.50
53962;DHT22;39868;53.398;6.564;2022-10-31T06:38:16;14.20;79.10
53962;DHT22;39868;53.398;6.564;2022-10-31T06:40:45;14.10;78.40
53962;DHT22;39868;53.398;6.564;2022-10-31T06:43:21;14.10;78.40
53962;DHT22;39868;53.398;6.564;2022-10-31T06:46:01;14.10;78.50
53962;DHT22;39868;53.398;6.564;2022-10-31T06:48:36;14.10;78.50
53962;DHT22;39868;53.398;6.564;2022-10-31T06:51:30;14.00;78.50
53962;DHT22;39868;53.398;6.564;2022-10-31T06:53:58;14.00;78.60
53962;DHT22;39868;53.398;6.564;2022-10-31T06:56:26;14.00;78.50
53962;DHT22;39868;53.398;6.564;2022-10-31T06:58:56;14.00;78.50
53962;DHT22;39868;53.398;6.564;2022-10-31T07:01:41;13.90;78.40
53962;DHT22;39868;53.398;6.564;2022-10-31T07:04:10;13.90;78.30
53962;DHT22;39868;53.398;6.564;2022-10-31T07:06:38;13.90;78.10
53962;DHT22;39868;53.398;6.564;2022-10-31T07:09:07;13.80;78.00
53962;DHT22;39868;53.398;6.564;2022-10-31T07:11:35;13.70;77.80
53962;DHT22;39868;53.398;6.564;2022-10-31T07:14:05;13.70;77.80
53962;DHT22;39868;53.398;6.564;2022-10-31T07:16:32;13.60;77.80
53962;DHT22;39868;53.398;6.564;2022-10-31T07:19:02;13.60;77.80
53962;DHT22;39868;53.398;6.564;2022-10-31T07:21:30;13.60;77.90
53962;DHT22;39868;53.398;6.564;2022-10-31T07:23:57;13.50;78.00
53962;DHT22;39868;53.398;6.564;2022-10-31T07:26:43;13.50;78.00
53962;DHT22;39868;53.398;6.564;2022-10-31T07:29:14;13.40;78.10
53962;DHT22;39868;53.398;6.564;2022-10-31T07:31:41;13.40;78.30
53962;DHT22;39868;53.398;6.564;2022-10-31T07:34:20;13.40;78.40
53962;DHT22;39868;53.398;6.564;2022-10-31T07:37:23;13.30;78.60
53962;DHT22;39868;53.398;6.564;2022-10-31T07:39:56;13.40;78.70
53962;DHT22;39868;53.398;6.564;2022-10-31T07:42:23;13.30;78.80
53962;DHT22;39868;53.398;6.564;2022-10-31T07:44:51;13.40;78.90
53962;DHT22;39868;53.398;6.564;2022-10-31T07:47:52;13.40;79.10
53962;DHT22;39868;53.398;6.564;2022-10-31T07:50:39;13.40;79.20
53962;DHT22;39868;53.398;6.564;2022-10-31T07:53:25;13.40;79.30
53962;DHT22;39868;53.398;6.564;2022-10-31T07:55:58;13.50;79.40
53962;DHT22;39868;53.398;6.564;2022-10-31T07:58:28;13.50;79.60
53962;DHT22;39868;53.398;6.564;2022-10-31T08:00:58;13.50;79.70
53962;DHT22;39868;53.398;6.564;2022-10-31T08:03:33;13.60;79.80
53962;DHT22;39868;53.398;6.564;2022-10-31T08:06:20;13.60;79.90
53962;DHT22;39868;53.398;6.564;2022-10-31T08:08:47;13.70;80.00
53962;DHT22;39868;53.398;6.564;2022-10-31T08:11:14;13.70;80.10
53962;DHT22;39868;53.398;6.564;2022-10-31T08:13:42;13.80;80.10
53962;DHT22;39868;53.398;6.564;2022-10-31T08:16:14;13.80;80.10
53962;DHT22;39868;53.398;6.564;2022-10-31T08:19:04;13.90;80.20
53962;DHT22;39868;53.398;6.564;2022-10-31T08:21:36;14.00;80.20
53962;DHT22;39868;53.398;6.564;2022-10-31T08:24:05;14.00;79.90
53962;DHT22;39868;53.398;6.564;2022-10-31T08:26:33;14.10;80.20
53962;DHT22;39868;53.398;6.564;2022-10-31T08:29:02;14.10;80.20
53962;DHT22;39868;53.398;6.564;2022-10-31T08:31:32;14.20;80.30
53962;DHT22;39868;53.398;6.564;2022-10-31T08:34:34;14.20;80.30
53962;DHT22;39868;53.398;6.564;2022-10-31T08:37:19;14.30;80.30
53962;DHT22;39868;53.398;6.564;2022-10-31T08:39:52;14.40;80.40
53962;DHT22;39868;53.398;6.564;2022-10-31T08:42:20;14.40;80.40
53962;DHT22;39868;53.398;6.564;2022-10-31T08:44:48;14.50;80.40
53962;DHT22;39868;53.398;6.564;2022-10-31T08:47:19;14.60;80.40
53962;DHT22;39868;53.398;6.564;2022-10-31T08:49:47;14.60;80.30
53962;DHT22;39868;53.398;6.564;2022-10-31T08:52:14;14.70;80.30
53962;DHT22;39868;53.398;6.564;2022-10-31T08:54:46;14.70;80.30
53962;DHT22;39868;53.398;6.564;2022-10-31T08:57:32;14.80;80.30
53962;DHT22;39868;53.398;6.564;2022-10-31T09:00:00;14.90;80.40
53962;DHT22;39868;53.398;6.564;2022-10-31T09:02:46;14.90;80.40
53962;DHT22;39868;53.398;6.564;2022-10-31T09:05:13;15.00;80.30
53962;DHT22;39868;53.398;6.564;2022-10-31T09:07:41;15.10;80.40
53962;DHT22;39868;53.398;6.564;2022-10-31T09:10:09;15.20;80.40
53962;DHT22;39868;53.398;6.564;2022-10-31T09:12:37;15.20;80.30
53962;DHT22;39868;53.398;6.564;2022-10-31T09:15:24;15.30;80.30
53962;DHT22;39868;53.398;6.564;2022-10-31T09:17:58;15.40;80.40
53962;DHT22;39868;53.398;6.564;2022-10-31T09:20:31;15.40;80.30
53962;DHT22;39868;53.398;6.564;2022-10-31T09:23:08;15.50;80.40
53962;DHT22;39868;53.398;6.564;2022-10-31T09:25:38;15.60;80.40
53962;DHT22;39868;53.398;6.564;2022-10-31T09:28:26;15.60;80.40
53962;DHT22;39868;53.398;6.564;2022-10-31T09:30:58;15.70;80.40
53962;DHT22;39868;53.398;6.564;2022-10-31T09:33:48;15.80;80.40
53962;DHT22;39868;53.398;6.564;2022-10-31T09:36:42;15.90;80.50
53962;DHT22;39868;53.398;6.564;2022-10-31T09:39:16;16.00;80.50
53962;DHT22;39868;53.398;6.564;2022-10-31T09:44:51;16.10;80.60
53962;DHT22;39868;53.398;6.564;2022-10-31T09:50:50;16.30;80.50
53962;DHT22;39868;53.398;6.564;2022-10-31T09:56:22;16.40;80.40
53962;DHT22;39868;53.398;6.564;2022-10-31T09:58:58;16.50;80.40
53962;DHT22;39868;53.398;6.564;2022-10-31T10:01:30;16.60;80.40
53962;DHT22;39868;53.398;6.564;2022-10-31T10:04:49;16.60;80.30
53962;DHT22;39868;53.398;6.564;2022-10-31T10:06:59;16.70;80.30
53962;DHT22;39868;53.398;6.564;2022-10-31T10:09:47;16.80;80.30
53962;DHT22;39868;53.398;6.564;2022-10-31T10:12:38;16.90;80.30
53962;DHT22;39868;53.398;6.564;2022-10-31T10:23:48;17.10;80.00
53962;DHT22;39868;53.398;6.564;2022-10-31T10:26:18;17.10;80.00
53962;DHT22;39868;53.398;6.564;2022-10-31T10:29:01;17.20;79.80
53962;DHT22;39868;53.398;6.564;2022-10-31T10:31:34;17.20;79.70
53962;DHT22;39868;53.398;6.564;2022-10-31T10:34:14;17.30;79.80
53962;DHT22;39868;53.398;6.564;2022-10-31T10:39:25;17.30;79.50
53962;DHT22;39868;53.398;6.564;2022-10-31T10:41:55;17.30;79.40
53962;DHT22;39868;53.398;6.564;2022-10-31T10:44:47;17.40;79.40
53962;DHT22;39868;53.398;6.564;2022-10-31T10:47:42;17.40;79.40
53962;DHT22;39868;53.398;6.564;2022-10-31T10:50:20;17.40;79.30
53962;DHT22;39868;53.398;6.564;2022-10-31T10:55:59;17.50;79.30
53962;DHT22;39868;53.398;6.564;2022-10-31T10:58:29;17.60;79.40
53962;DHT22;39868;53.398;6.564;2022-10-31T11:00:57;17.70;79.30
53962;DHT22;39868;53.398;6.564;2022-10-31T11:03:24;17.70;79.40
53962;DHT22;39868;53.398;6.564;2022-10-31T11:05:56;17.80;79.40
53962;DHT22;39868;53.398;6.564;2022-10-31T11:08:34;17.90;79.40
53962;DHT22;39868;53.398;6.564;2022-10-31T11:11:30;17.90;79.20
53962;DHT22;39868;53.398;6.564;2022-10-31T11:14:15;18.00;79.20
53962;DHT22;39868;53.398;6.564;2022-10-31T11:16:50;18.10;79.00
53962;DHT22;39868;53.398;6.564;2022-10-31T11:19:23;18.10;78.80
53962;DHT22;39868;53.398;6.564;2022-10-31T11:21:54;18.10;78.80
53962;DHT22;39868;53.398;6.564;2022-10-31T11:24:25;18.20;78.80
53962;DHT22;39868;53.398;6.564;2022-10-31T11:27:15;18.20;78.70
53962;DHT22;39868;53.398;6.564;2022-10-31T11:29:44;18.20;78.70
53962;DHT22;39868;53.398;6.564;2022-10-31T11:32:28;18.30;78.60
53962;DHT22;39868;53.398;6.564;2022-10-31T11:35:00;18.30;78.60
53962;DHT22;39868;53.398;6.564;2022-10-31T11:37:34;18.40;78.40
53962;DHT22;39868;53.398;6.564;2022-10-31T11:40:05;18.40;78.40
53962;DHT22;39868;53.398;6.564;2022-10-31T11:42:41;18.50;78.40
53962;DHT22;39868;53.398;6.564;2022-10-31T11:45:32;18.60;78.40
53962;DHT22;39868;53.398;6.564;2022-10-31T11:48:02;18.60;78.30
53962;DHT22;39868;53.398;6.564;2022-10-31T11:50:40;18.70;78.20
53962;DHT22;39868;53.398;6.564;2022-10-31T11:53:20;18.70;78.00
53962;DHT22;39868;53.398;6.564;2022-10-31T11:56:03;18.70;78.00
53962;DHT22;39868;53.398;6.564;2022-10-31T11:58:32;18.80;77.80
53962;DHT22;39868;53.398;6.564;2022-10-31T12:00:59;18.80;77.60
53962;DHT22;39868;53.398;6.564;2022-10-31T12:03:37;18.80;77.40
53962;DHT22;39868;53.398;6.564;2022-10-31T12:06:41;18.80;77.30
53962;DHT22;39868;53.398;6.564;2022-10-31T12:09:24;18.80;77.50
53962;DHT22;39868;53.398;6.564;2022-10-31T12:25:49;18.80;77.10
53962;DHT22;39868;53.398;6.564;2022-10-31T12:34:42;18.80;77.70
53962;DHT22;39868;53.398;6.564;2022-10-31T12:37:20;18.80;77.50
53962;DHT22;39868;53.398;6.564;2022-10-31T12:51:30;18.80;77.30
53962;DHT22;39868;53.398;6.564;2022-10-31T12:57:23;18.80;77.30
53962;DHT22;39868;53.398;6.564;2022-10-31T13:00:02;18.80;77.20
53962;DHT22;39868;53.398;6.564;2022-10-31T13:05:34;18.90;77.10
53962;DHT22;39868;53.398;6.564;2022-10-31T13:08:07;18.90;77.60
53962;DHT22;39868;53.398;6.564;2022-10-31T13:10:44;18.90;77.20
53962;DHT22;39868;53.398;6.564;2022-10-31T13:13:46;18.90;77.10
53962;DHT22;39868;53.398;6.564;2022-10-31T13:16:41;18.90;77.20
53962;DHT22;39868;53.398;6.564;2022-10-31T13:19:43;19.00;77.10
53962;DHT22;39868;53.398;6.564;2022-10-31T13:22:22;19.00;77.20
53962;DHT22;39868;53.398;6.564;2022-10-31T13:27:29;18.90;76.70
53962;DHT22;39868;53.398;6.564;2022-10-31T13:30:19;19.00;76.60
53962;DHT22;39868;53.398;6.564;2022-10-31T13:32:53;19.00;76.70
53962;DHT22;39868;53.398;6.564;2022-10-31T13:44:10;19.00;76.60
53962;DHT22;39868;53.398;6.564;2022-10-31T13:46:41;19.10;76.70
53962;DHT22;39868;53.398;6.564;2022-10-31T13:49:47;19.10;76.90
53962;DHT22;39868;53.398;6.564;2022-10-31T13:52:23;19.10;76.80
53962;DHT22;39868;53.398;6.564;2022-10-31T13:54:53;19.20;76.70
53962;DHT22;39868;53.398;6.564;2022-10-31T13:57:41;19.20;76.70
53962;DHT22;39868;53.398;6.564;2022-10-31T14:02:48;19.30;76.60
53962;DHT22;39868;53.398;6.564;2022-10-31T14:05:32;19.30;76.40
53962;DHT22;39868;53.398;6.564;2022-10-31T14:08:15;19.40;76.20
53962;DHT22;39868;53.398;6.564;2022-10-31T14:10:48;19.50;76.30
53962;DHT22;39868;53.398;6.564;2022-10-31T14:13:44;19.50;75.90
53962;DHT22;39868;53.398;6.564;2022-10-31T14:16:24;19.60;75.80
53962;DHT22;39868;53.398;6.564;2022-10-31T14:19:16;19.50;75.50
53962;DHT22;39868;53.398;6.564;2022-10-31T14:21:48;19.50;75.40
53962;DHT22;39868;53.398;6.564;2022-10-31T14:26:55;19.40;75.10
53962;DHT22;39868;53.398;6.564;2022-10-31T14:29:24;19.40;75.00
53962;DHT22;39868;53.398;6.564;2022-10-31T14:31:56;19.30;74.90
53962;DHT22;39868;53.398;6.564;2022-10-31T14:34:34;19.30;75.70
53962;DHT22;39868;53.398;6.564;2022-10-31T14:51:09;18.90;75.20
53962;DHT22;39868;53.398;6.564;2022-10-31T14:53:53;18.80;75.20
53962;DHT22;39868;53.398;6.564;2022-10-31T14:56:33;18.80;75.30
53962;DHT22;39868;53.398;6.564;2022-10-31T14:59:13;18.80;75.40
53962;DHT22;39868;53.398;6.564;2022-10-31T15:01:59;18.70;75.40
53962;DHT22;39868;53.398;6.564;2022-10-31T15:04:29;18.70;75.50
53962;DHT22;39868;53.398;6.564;2022-10-31T15:07:15;18.60;75.60
53962;DHT22;39868;53.398;6.564;2022-10-31T15:10:05;18.60;75.70
53962;DHT22;39868;53.398;6.564;2022-10-31T15:12:35;18.60;75.80
53962;DHT22;39868;53.398;6.564;2022-10-31T15:15:13;18.50;75.80
53962;DHT22;39868;53.398;6.564;2022-10-31T15:17:51;18.50;75.70
53962;DHT22;39868;53.398;6.564;2022-10-31T15:20:25;18.50;75.80
53962;DHT22;39868;53.398;6.564;2022-10-31T15:22:57;18.50;75.80
53962;DHT22;39868;53.398;6.564;2022-10-31T15:25:30;18.40;75.90
53962;DHT22;39868;53.398;6.564;2022-10-31T15:27:59;18.40;75.90
53962;DHT22;39868;53.398;6.564;2022-10-31T15:30:28;18.40;76.00
53962;DHT22;39868;53.398;6.564;2022-10-31T15:32:56;18.30;75.90
53962;DHT22;39868;53.398;6.564;2022-10-31T15:35:30;18.30;76.00
53962;DHT22;39868;53.398;6.564;2022-10-31T15:37:58;18.30;76.00
53962;DHT22;39868;53.398;6.564;2022-10-31T15:40:29;18.20;75.90
53962;DHT22;39868;53.398;6.564;2022-10-31T15:43:01;18.20;76.00
53962;DHT22;39868;53.398;6.564;2022-10-31T15:45:29;18.10;75.90
53962;DHT22;39868;53.398;6.564;2022-10-31T15:48:00;18.10;75.90
53962;DHT22;39868;53.398;6.564;2022-10-31T15:50:35;18.10;76.00
53962;DHT22;39868;53.398;6.564;2022-10-31T15:53:05;18.00;76.00
53962;DHT22;39868;53.398;6.564;2022-10-31T15:55:38;18.00;76.00
53962;DHT22;39868;53.398;6.564;2022-10-31T15:58:14;17.90;76.00
53962;DHT22;39868;53.398;6.564;2022-10-31T16:00:43;17.90;76.10
53962;DHT22;39868;53.398;6.564;2022-10-31T16:05:48;17.80;76.20
53962;DHT22;39868;53.398;6.564;2022-10-31T16:14:28;17.70;76.40
53962;DHT22;39868;53.398;6.564;2022-10-31T16:16:31;17.60;76.50
53962;DHT22;39868;53.398;6.564;2022-10-31T16:19:03;17.60;76.60
53962;DHT22;39868;53.398;6.564;2022-10-31T16:21:36;17.50;76.60
53962;DHT22;39868;53.398;6.564;2022-10-31T16:24:29;17.50;76.60
53962;DHT22;39868;53.398;6.564;2022-10-31T16:27:05;17.50;76.70
53962;DHT22;39868;53.398;6.564;2022-10-31T16:29:43;17.50;76.70
53962;DHT22;39868;53.398;6.564;2022-10-31T16:32:31;17.40;76.70
53962;DHT22;39868;53.398;6.564;2022-10-31T16:37:40;17.40;76.70
53962;DHT22;39868;53.398;6.564;2022-10-31T16:40:12;17.30;76.70
53962;DHT22;39868;53.398;6.564;2022-10-31T16:42:43;17.30;76.80
53962;DHT22;39868;53.398;6.564;2022-10-31T16:45:22;17.30;76.80
53962;DHT22;39868;53.398;6.564;2022-10-31T16:47:53;17.30;76.80
53962;DHT22;39868;53.398;6.564;2022-10-31T16:50:24;17.30;76.90
53962;DHT22;39868;53.398;6.564;2022-10-31T16:52:52;17.30;76.90
53962;DHT22;39868;53.398;6.564;2022-10-31T16:55:48;17.20;76.90
53962;DHT22;39868;53.398;6.564;2022-10-31T16:58:30;17.20;76.90
53962;DHT22;39868;53.398;6.564;2022-10-31T17:01:05;17.20;76.90
53962;DHT22;39868;53.398;6.564;2022-10-31T17:03:34;17.20;76.90
53962;DHT22;39868;53.398;6.564;2022-10-31T17:06:02;17.20;76.90
53962;DHT22;39868;53.398;6.564;2022-10-31T17:08:29;17.20;76.90
53962;DHT22;39868;53.398;6.564;2022-10-31T17:10:58;17.20;77.00
53962;DHT22;39868;53.398;6.564;2022-10-31T17:13:28;17.20;77.00
53962;DHT22;39868;53.398;6.564;2022-10-31T17:15:59;17.10;76.90
53962;DHT22;39868;53.398;6.564;2022-10-31T17:18:27;17.20;77.00
53962;DHT22;39868;53.398;6.564;2022-10-31T17:20:59;17.20;77.00
53962;DHT22;39868;53.398;6.564;2022-10-31T17:23:27;17.10;76.90
53962;DHT22;39868;53.398;6.564;2022-10-31T17:25:56;17.10;76.90
53962;DHT22;39868;53.398;6.564;2022-10-31T17:28:24;17.10;76.90
53962;DHT22;39868;53.398;6.564;2022-10-31T17:30:56;17.10;76.90
53962;DHT22;39868;53.398;6.564;2022-10-31T17:33:25;17.10;76.90
53962;DHT22;39868;53.398;6.564;2022-10-31T17:35:53;17.10;76.90
53962;DHT22;39868;53.398;6.564;2022-10-31T17:38:20;17.10;76.90
53962;DHT22;39868;53.398;6.564;2022-10-31T17:40:48;17.10;77.00
53962;DHT22;39868;53.398;6.564;2022-10-31T17:43:16;17.10;77.00
53962;DHT22;39868;53.398;6.564;2022-10-31T17:45:43;17.10;77.00
53962;DHT22;39868;53.398;6.564;2022-10-31T17:48:11;17.10;77.00
53962;DHT22;39868;53.398;6.564;2022-10-31T17:50:39;17.10;77.00
53962;DHT22;39868;53.398;6.564;2022-10-31T17:53:06;17.00;77.00
53962;DHT22;39868;53.398;6.564;2022-10-31T17:55:34;17.10;77.60
53962;DHT22;39868;53.398;6.564;2022-10-31T17:58:04;17.00;77.00
53962;DHT22;39868;53.398;6.564;2022-10-31T18:00:32;17.10;77.10
53962;DHT22;39868;53.398;6.564;2022-10-31T18:03:03;17.00;77.10
53962;DHT22;39868;53.398;6.564;2022-10-31T18:05:32;17.00;77.20
53962;DHT22;39868;53.398;6.564;2022-10-31T18:08:03;17.00;77.30
53962;DHT22;39868;53.398;6.564;2022-10-31T18:10:31;17.00;77.30
53962;DHT22;39868;53.398;6.564;2022-10-31T18:12:59;17.00;77.40
53962;DHT22;39868;53.398;6.564;2022-10-31T18:15:27;17.00;77.50
53962;DHT22;39868;53.398;6.564;2022-10-31T18:17:55;17.00;77.60
53962;DHT22;39868;53.398;6.564;2022-10-31T18:20:22;17.00;77.70
53962;DHT22;39868;53.398;6.564;2022-10-31T18:22:49;17.00;77.80
53962;DHT22;39868;53.398;6.564;2022-10-31T18:25:18;17.00;77.90
53962;DHT22;39868;53.398;6.564;2022-10-31T18:27:45;17.00;78.00
53962;DHT22;39868;53.398;6.564;2022-10-31T18:30:12;17.00;78.10
53962;DHT22;39868;53.398;6.564;2022-10-31T18:32:40;17.00;78.20
53962;DHT22;39868;53.398;6.564;2022-10-31T18:35:07;17.00;78.20